createdAt,value
2023-05-18T00:01:14.485Z,7.40
2023-05-18T00:06:16.592Z,7.30
2023-05-18T00:11:18.425Z,7.30
2023-05-18T00:16:20.677Z,7.30
2023-05-18T00:21:22.712Z,7.30
2023-05-18T00:26:24.544Z,7.10
2023-05-18T00:31:26.589Z,7.00
2023-05-18T00:36:28.789Z,7.00
2023-05-18T00:41:31.053Z,6.90
2023-05-18T00:46:33.249Z,6.80
2023-05-18T00:51:35.602Z,6.80
2023-05-18T00:56:42.418Z,6.70
2023-05-18T01:01:44.824Z,6.70
2023-05-18T01:06:47.456Z,6.60
2023-05-18T01:12:36.349Z,6.60
2023-05-18T01:17:49.953Z,6.50
2023-05-18T01:23:37.049Z,6.50
2023-05-18T01:28:38.989Z,6.50
2023-05-18T01:33:41.077Z,6.40
2023-05-18T01:38:44.351Z,6.40
2023-05-18T01:44:09.492Z,6.30
2023-05-18T01:49:18.502Z,6.20
2023-05-18T01:54:22.510Z,8.60
2023-05-18T01:59:25.297Z,6.20
2023-05-18T02:04:28.026Z,6.20
2023-05-18T02:09:29.814Z,7.70
2023-05-18T02:14:31.677Z,7.90
2023-05-18T02:19:34.003Z,6.20
2023-05-18T02:24:35.888Z,7.10
2023-05-18T02:29:38.030Z,6.90
2023-05-18T02:34:42.437Z,6.00
2023-05-18T02:39:44.518Z,5.90
2023-05-18T02:44:46.305Z,5.80
2023-05-18T02:49:48.017Z,5.70
2023-05-18T02:54:50.055Z,5.80
2023-05-18T02:59:52.095Z,5.70
2023-05-18T03:04:57.302Z,5.80
2023-05-18T03:09:59.121Z,5.70
2023-05-18T03:15:01.048Z,5.50
2023-05-18T03:20:03.152Z,5.50
2023-05-18T03:25:06.147Z,5.50
2023-05-18T03:30:08.876Z,5.50
2023-05-18T03:35:10.831Z,5.40
2023-05-18T03:40:16.308Z,6.80
2023-05-18T03:45:18.213Z,5.50
2023-05-18T03:50:20.517Z,5.40
2023-05-18T03:55:22.708Z,5.40
2023-05-18T04:00:24.913Z,6.50
2023-05-18T04:05:28.806Z,5.50
2023-05-18T04:10:36.411Z,5.50
2023-05-18T04:15:38.348Z,5.50
2023-05-18T04:20:41.716Z,5.50
2023-05-18T04:25:43.860Z,5.60
2023-05-18T04:30:46.268Z,5.50
2023-05-18T04:35:48.945Z,5.80
2023-05-18T04:40:51.426Z,5.80
2023-05-18T04:45:54.793Z,5.70
2023-05-18T04:50:56.577Z,5.70
2023-05-18T04:55:58.450Z,5.80
2023-05-18T05:01:00.373Z,5.80
2023-05-18T05:06:02.304Z,6.00
2023-05-18T05:11:04.493Z,6.00
2023-05-18T05:16:06.681Z,6.10
2023-05-18T05:21:10.366Z,6.10
2023-05-18T05:26:12.167Z,6.40
2023-05-18T05:31:14.418Z,6.40
2023-05-18T05:36:16.220Z,6.80
2023-05-18T05:41:22.713Z,6.80
2023-05-18T05:46:24.849Z,7.10
2023-05-18T05:56:29.741Z,7.60
2023-05-18T06:01:32.210Z,7.70
2023-05-18T06:06:33.923Z,8.10
2023-05-18T06:11:38.939Z,8.20
2023-05-18T06:21:43.190Z,8.60
2023-05-18T06:31:50.470Z,9.50
2023-05-18T06:36:52.322Z,9.90
2023-05-18T06:41:54.074Z,10.00
2023-05-18T06:46:55.980Z,10.20
2023-05-18T06:51:57.793Z,10.60
2023-05-18T06:56:59.632Z,10.70
2023-05-18T07:02:01.455Z,10.80
2023-05-18T07:12:09.427Z,11.20
2023-05-18T07:17:11.197Z,11.30
2023-05-18T07:22:13.316Z,11.80
2023-05-18T07:27:15.338Z,11.80
2023-05-18T07:37:22.399Z,12.30
2023-05-18T07:42:24.384Z,14.00
2023-05-18T07:47:27.325Z,12.60
2023-05-18T07:57:31.367Z,13.30
2023-05-18T08:02:35.965Z,13.20
2023-05-18T08:12:40.235Z,13.70
2023-05-18T08:17:42.617Z,13.90
2023-05-18T08:27:47.330Z,14.30
2023-05-18T08:37:51.753Z,14.50
2023-05-18T08:43:06.174Z,14.70
2023-05-18T08:58:21.585Z,14.90
2023-05-18T09:03:24.460Z,14.90
2023-05-18T09:08:26.883Z,15.70
2023-05-18T09:13:30.119Z,16.00
2023-05-18T09:18:32.280Z,16.20
2023-05-18T09:23:35.086Z,16.50
2023-05-18T09:28:39.635Z,16.10
2023-05-18T09:33:44.424Z,16.70
2023-05-18T09:38:47.340Z,16.60
2023-05-18T09:43:49.639Z,16.80
2023-05-18T09:48:53.054Z,17.00
2023-05-18T09:53:56.514Z,17.00
2023-05-18T09:59:07.922Z,16.90
2023-05-18T10:04:09.753Z,17.60
2023-05-18T10:09:16.599Z,18.30
2023-05-18T10:14:18.727Z,18.40
2023-05-18T10:19:21.176Z,18.40
2023-05-18T10:24:26.962Z,18.90
2023-05-18T10:29:30.151Z,19.30
2023-05-18T10:34:33.154Z,19.20
2023-05-18T10:39:39.556Z,19.80
2023-05-18T10:44:41.384Z,19.80
2023-05-18T10:49:49.876Z,20.00
2023-05-18T10:54:52.740Z,18.40
2023-05-18T10:59:54.700Z,19.70
2023-05-18T11:04:57.222Z,20.20
2023-05-18T11:10:02.260Z,20.20
2023-05-18T11:15:07.744Z,20.90
2023-05-18T11:20:13.281Z,21.20
2023-05-18T11:25:27.328Z,21.00
2023-05-18T11:30:46.902Z,21.00
2023-05-18T11:36:04.728Z,21.10
2023-05-18T11:41:08.543Z,21.40
2023-05-18T11:46:18.593Z,21.20
2023-05-18T11:51:20.412Z,21.60
2023-05-18T11:56:33.700Z,21.40
2023-05-18T12:01:35.761Z,20.60
2023-05-18T12:06:40.436Z,19.90
2023-05-18T12:11:42.314Z,19.90
2023-05-18T12:16:47.476Z,20.20
2023-05-18T12:21:53.137Z,20.60
2023-05-18T12:26:56.325Z,21.00
2023-05-18T12:32:05.704Z,21.10
2023-05-18T12:37:08.001Z,21.90
2023-05-18T12:42:17.049Z,21.90
2023-05-18T12:47:18.817Z,22.30
2023-05-18T12:52:21.736Z,21.80
2023-05-18T12:57:27.141Z,21.70
2023-05-18T13:02:36.593Z,21.80
2023-05-18T13:07:44.013Z,22.30
2023-05-18T13:12:50.839Z,22.40
2023-05-18T13:18:07.251Z,21.70
2023-05-18T13:23:14.637Z,21.90
2023-05-18T13:28:19.029Z,21.10
2023-05-18T13:33:21.869Z,21.60
2023-05-18T13:38:23.961Z,22.40
2023-05-18T13:43:25.813Z,22.50
2023-05-18T13:48:28.976Z,22.60
2023-05-18T13:53:31.151Z,23.50
2023-05-18T13:58:36.456Z,23.10
2023-05-18T14:03:40.571Z,22.70
2023-05-18T14:08:42.474Z,23.90
2023-05-18T14:18:46.940Z,20.70
2023-05-18T14:23:48.813Z,21.70
2023-05-18T14:28:50.773Z,21.20
2023-05-18T14:33:52.738Z,21.10
2023-05-18T14:38:55.111Z,21.20
2023-05-18T14:43:59.126Z,20.90
2023-05-18T14:49:01.234Z,20.50
2023-05-18T14:54:03.120Z,20.70
2023-05-18T14:59:05.391Z,21.60
2023-05-18T15:04:07.650Z,21.60
2023-05-18T15:09:10.250Z,22.20
2023-05-18T15:14:12.162Z,22.10
2023-05-18T15:19:14.125Z,20.20
2023-05-18T15:24:16.003Z,19.70
2023-05-18T15:29:17.923Z,20.70
2023-05-18T15:34:20.003Z,21.20
2023-05-18T15:49:26.683Z,19.40
2023-05-18T15:54:28.941Z,18.90
2023-05-18T15:59:30.824Z,18.90
2023-05-18T16:04:32.605Z,19.50
2023-05-18T16:09:34.502Z,19.80
2023-05-18T16:14:36.486Z,19.40
2023-05-18T16:19:38.301Z,18.80
2023-05-18T16:24:40.542Z,18.50
2023-05-18T16:29:42.725Z,18.40
2023-05-18T16:34:44.942Z,18.30
2023-05-18T16:39:46.956Z,18.30
2023-05-18T16:44:48.871Z,18.00
2023-05-18T16:49:50.765Z,18.00
2023-05-18T16:54:52.662Z,17.80
2023-05-18T16:59:54.777Z,17.80
2023-05-18T17:04:56.825Z,17.60
2023-05-18T17:09:58.669Z,17.60
2023-05-18T17:15:02.689Z,17.40
2023-05-18T17:20:06.774Z,17.40
2023-05-18T17:25:09.075Z,17.10
2023-05-18T17:30:11.614Z,17.10
2023-05-18T17:35:14.518Z,17.20
2023-05-18T17:40:16.720Z,17.20
2023-05-18T17:45:22.292Z,17.10
2023-05-18T17:50:26.797Z,17.10
2023-05-18T17:55:28.613Z,16.90
2023-05-18T18:00:31.008Z,16.90
2023-05-18T18:05:36.502Z,16.60
2023-05-18T18:10:38.510Z,16.50
2023-05-18T18:20:43.167Z,16.30
2023-05-18T18:25:45.523Z,16.10
2023-05-18T18:30:47.417Z,16.10
2023-05-18T18:35:49.269Z,15.70
2023-05-18T18:45:55.011Z,15.30
2023-05-18T18:50:59.744Z,15.10
2023-05-18T18:56:01.632Z,14.20
2023-05-18T19:01:03.525Z,14.70
2023-05-18T19:06:05.557Z,14.50
2023-05-18T19:11:07.299Z,14.50
2023-05-18T19:16:09.219Z,14.10
2023-05-18T19:21:11.762Z,14.00
2023-05-18T19:26:13.686Z,13.60
2023-05-18T19:31:15.682Z,13.80
2023-05-18T19:36:17.925Z,13.60
2023-05-18T19:41:21.300Z,13.40
2023-05-18T19:46:24.021Z,13.40
2023-05-18T19:51:26.436Z,13.40
2023-05-18T19:56:28.726Z,13.30
2023-05-18T20:06:34.196Z,13.20
2023-05-18T20:11:35.958Z,13.20
2023-05-18T20:16:39.923Z,13.00
2023-05-18T20:21:41.793Z,13.10
2023-05-18T20:26:43.867Z,13.00
2023-05-18T20:31:46.081Z,13.00
2023-05-18T20:36:47.905Z,13.00
2023-05-18T20:41:50.454Z,13.00
2023-05-18T20:46:53.082Z,13.00
2023-05-18T20:51:54.964Z,13.00
2023-05-18T20:56:56.830Z,12.80
2023-05-18T21:01:58.853Z,12.80
2023-05-18T21:07:01.810Z,12.90
2023-05-18T21:12:03.853Z,11.20
2023-05-18T21:17:06.361Z,12.90
2023-05-18T21:22:11.090Z,13.30
2023-05-18T21:27:12.964Z,12.80
2023-05-18T21:32:15.125Z,13.10
2023-05-18T21:37:16.981Z,12.80
2023-05-18T21:42:18.773Z,12.70
2023-05-18T21:47:20.825Z,12.70
2023-05-18T21:52:22.659Z,12.60
2023-05-18T21:57:25.134Z,12.60
2023-05-18T22:02:27.116Z,12.60
2023-05-18T22:07:30.357Z,12.60
2023-05-18T22:12:35.594Z,12.60
2023-05-18T22:17:37.802Z,12.60
2023-05-18T22:22:42.899Z,13.30
2023-05-18T22:27:48.182Z,12.70
2023-05-18T22:32:50.814Z,12.60
2023-05-18T22:37:52.965Z,12.70
2023-05-18T22:42:55.087Z,12.80
2023-05-18T22:47:57.356Z,12.70
2023-05-18T22:52:59.181Z,12.60
2023-05-18T22:58:00.946Z,12.40
2023-05-18T23:03:02.924Z,12.30
2023-05-18T23:08:05.569Z,12.20
2023-05-18T23:13:07.393Z,12.00
2023-05-18T23:18:12.730Z,11.90
2023-05-18T23:23:14.606Z,11.80
2023-05-18T23:28:16.708Z,11.60
2023-05-18T23:33:18.918Z,11.60
2023-05-18T23:38:24.076Z,11.70
2023-05-18T23:43:27.281Z,11.80
2023-05-18T23:48:32.595Z,11.70
2023-05-18T23:53:35.329Z,11.70
2023-05-18T23:58:37.415Z,11.60
